sensor_id;sensor_type;location;lat;lon;timestamp;pressure;altitude;pressure_sealevel;temperature;humidity
19783;BME280;10051;40.294;-3.754;2022-09-03T00:02:39;93852.72;;;25.22;33.77
19783;BME280;10051;40.294;-3.754;2022-09-03T00:05:36;93838.06;;;24.98;34.15
19783;BME280;10051;40.294;-3.754;2022-09-03T00:08:14;93844.25;;;25.05;34.36
19783;BME280;10051;40.294;-3.754;2022-09-03T00:13:31;93848.84;;;25.01;34.24
19783;BME280;10051;40.294;-3.754;2022-09-03T00:15:59;93819.59;;;24.85;34.09
19783;BME280;10051;40.294;-3.754;2022-09-03T00:18:30;93828.78;;;24.77;34.21
19783;BME280;10051;40.294;-3.754;2022-09-03T00:21:02;93860.31;;;24.87;34.54
19783;BME280;10051;40.294;-3.754;2022-09-03T00:23:34;93863.34;;;24.82;34.58
19783;BME280;10051;40.294;-3.754;2022-09-03T00:29:15;93848.38;;;24.81;34.65
19783;BME280;10051;40.294;-3.754;2022-09-03T00:31:47;93800.19;;;24.47;34.61
19783;BME280;10051;40.294;-3.754;2022-09-03T00:34:20;93844.09;;;24.73;34.61
19783;BME280;10051;40.294;-3.754;2022-09-03T00:36:48;93821.72;;;24.54;34.42
19783;BME280;10051;40.294;-3.754;2022-09-03T00:39:17;93780.91;;;24.27;34.83
19783;BME280;10051;40.294;-3.754;2022-09-03T00:45:07;93845.59;;;24.67;34.61
19783;BME280;10051;40.294;-3.754;2022-09-03T00:50:25;93854.00;;;24.58;34.69
19783;BME280;10051;40.294;-3.754;2022-09-03T01:01:20;93847.78;;;24.46;34.85
19783;BME280;10051;40.294;-3.754;2022-09-03T01:06:23;93794.84;;;23.91;35.42
19783;BME280;10051;40.294;-3.754;2022-09-03T01:09:02;93845.31;;;24.19;35.38
19783;BME280;10051;40.294;-3.754;2022-09-03T01:30:41;93826.97;;;23.80;36.45
19783;BME280;10051;40.294;-3.754;2022-09-03T01:35:51;93758.59;;;23.22;36.74
19783;BME280;10051;40.294;-3.754;2022-09-03T01:46:39;93797.34;;;23.24;37.11
19783;BME280;10051;40.294;-3.754;2022-09-03T01:51:45;93823.13;;;23.36;37.37
19783;BME280;10051;40.294;-3.754;2022-09-03T01:54:29;93840.78;;;23.41;37.40
19783;BME280;10051;40.294;-3.754;2022-09-03T02:00:04;93822.25;;;23.25;37.31
19783;BME280;10051;40.294;-3.754;2022-09-03T02:02:30;93826.44;;;23.22;37.38
19783;BME280;10051;40.294;-3.754;2022-09-03T02:05:13;93832.22;;;23.24;37.62
19783;BME280;10051;40.294;-3.754;2022-09-03T02:07:45;93809.00;;;23.05;37.84
19783;BME280;10051;40.294;-3.754;2022-09-03T02:10:18;93814.47;;;23.16;37.35
19783;BME280;10051;40.294;-3.754;2022-09-03T02:12:51;93823.53;;;23.04;37.79
19783;BME280;10051;40.294;-3.754;2022-09-03T02:15:21;93805.34;;;22.86;37.80
19783;BME280;10051;40.294;-3.754;2022-09-03T02:17:48;93797.16;;;22.72;38.18
19783;BME280;10051;40.294;-3.754;2022-09-03T02:20:21;93839.13;;;22.95;37.98
19783;BME280;10051;40.294;-3.754;2022-09-03T02:22:48;93823.69;;;22.84;37.98
19783;BME280;10051;40.294;-3.754;2022-09-03T02:25:15;93849.94;;;23.02;37.96
19783;BME280;10051;40.294;-3.754;2022-09-03T02:27:41;93847.25;;;23.02;37.73
19783;BME280;10051;40.294;-3.754;2022-09-03T02:30:07;93813.97;;;22.72;38.02
19783;BME280;10051;40.294;-3.754;2022-09-03T02:32:33;93844.91;;;22.97;37.90
19783;BME280;10051;40.294;-3.754;2022-09-03T02:34:58;93800.78;;;22.56;38.04
19783;BME280;10051;40.294;-3.754;2022-09-03T02:37:24;93846.66;;;22.85;38.26
19783;BME280;10051;40.294;-3.754;2022-09-03T02:39:50;93813.94;;;22.69;38.29
19783;BME280;10051;40.294;-3.754;2022-09-03T02:42:16;93837.81;;;22.81;38.29
19783;BME280;10051;40.294;-3.754;2022-09-03T02:47:35;93803.78;;;22.51;38.36
19783;BME280;10051;40.294;-3.754;2022-09-03T02:50:02;93833.44;;;22.66;38.58
19783;BME280;10051;40.294;-3.754;2022-09-03T02:52:28;93816.34;;;22.47;38.81
19783;BME280;10051;40.294;-3.754;2022-09-03T02:54:53;93796.75;;;22.43;38.66
19783;BME280;10051;40.294;-3.754;2022-09-03T02:57:19;93845.00;;;22.73;38.91
19783;BME280;10051;40.294;-3.754;2022-09-03T02:59:44;93803.34;;;22.46;39.05
19783;BME280;10051;40.294;-3.754;2022-09-03T03:02:11;93792.44;;;22.35;38.92
19783;BME280;10051;40.294;-3.754;2022-09-03T03:04:37;93786.75;;;22.40;38.95
19783;BME280;10051;40.294;-3.754;2022-09-03T03:07:05;93816.94;;;22.64;38.78
19783;BME280;10051;40.294;-3.754;2022-09-03T03:09:31;93804.94;;;22.54;38.67
19783;BME280;10051;40.294;-3.754;2022-09-03T03:11:57;93842.09;;;22.86;38.63
19783;BME280;10051;40.294;-3.754;2022-09-03T03:14:22;93796.28;;;22.64;38.31
19783;BME280;10051;40.294;-3.754;2022-09-03T03:16:49;93799.31;;;22.63;38.70
19783;BME280;10051;40.294;-3.754;2022-09-03T03:19:15;93726.44;;;22.19;38.41
19783;BME280;10051;40.294;-3.754;2022-09-03T03:21:41;93674.25;;;21.75;38.63
19783;BME280;10051;40.294;-3.754;2022-09-03T03:24:07;93845.00;;;23.08;38.34
19783;BME280;10051;40.294;-3.754;2022-09-03T03:26:33;93677.88;;;21.90;38.58
19783;BME280;10051;40.294;-3.754;2022-09-03T03:29:02;93764.31;;;22.48;38.59
19783;BME280;10051;40.294;-3.754;2022-09-03T03:31:31;93759.69;;;22.45;38.24
19783;BME280;10051;40.294;-3.754;2022-09-03T03:33:58;93656.56;;;21.67;38.45
19783;BME280;10051;40.294;-3.754;2022-09-03T03:36:26;93829.06;;;22.84;38.50
19783;BME280;10051;40.294;-3.754;2022-09-03T03:38:53;93845.34;;;23.02;38.61
19783;BME280;10051;40.294;-3.754;2022-09-03T03:41:21;93778.53;;;22.52;38.75
19783;BME280;10051;40.294;-3.754;2022-09-03T03:43:52;93849.88;;;22.98;38.43
19783;BME280;10051;40.294;-3.754;2022-09-03T03:46:19;93813.88;;;22.65;38.66
19783;BME280;10051;40.294;-3.754;2022-09-03T03:48:47;93809.69;;;22.37;39.16
19783;BME280;10051;40.294;-3.754;2022-09-03T03:51:12;93793.06;;;22.24;39.00
19783;BME280;10051;40.294;-3.754;2022-09-03T03:53:38;93857.66;;;22.46;39.32
19783;BME280;10051;40.294;-3.754;2022-09-03T03:56:06;93763.75;;;21.78;39.86
19783;BME280;10051;40.294;-3.754;2022-09-03T03:58:34;93839.25;;;22.18;39.79
19783;BME280;10051;40.294;-3.754;2022-09-03T04:01:07;93850.13;;;22.28;39.72
19783;BME280;10051;40.294;-3.754;2022-09-03T04:03:34;93800.41;;;21.77;39.97
19783;BME280;10051;40.294;-3.754;2022-09-03T04:06:00;93839.69;;;21.96;40.29
19783;BME280;10051;40.294;-3.754;2022-09-03T04:08:27;93789.81;;;21.61;40.44
19783;BME280;10051;40.294;-3.754;2022-09-03T04:10:53;93817.31;;;21.81;40.36
19783;BME280;10051;40.294;-3.754;2022-09-03T04:13:19;93754.47;;;21.25;40.75
19783;BME280;10051;40.294;-3.754;2022-09-03T04:15:45;93813.63;;;21.66;40.77
19783;BME280;10051;40.294;-3.754;2022-09-03T04:18:11;93771.34;;;21.29;41.01
19783;BME280;10051;40.294;-3.754;2022-09-03T04:20:37;93725.88;;;20.83;41.37
19783;BME280;10051;40.294;-3.754;2022-09-03T04:23:03;93767.16;;;21.08;41.41
19783;BME280;10051;40.294;-3.754;2022-09-03T04:25:29;93794.22;;;21.27;41.32
19783;BME280;10051;40.294;-3.754;2022-09-03T04:27:55;93796.28;;;21.14;41.76
19783;BME280;10051;40.294;-3.754;2022-09-03T04:30:21;93817.75;;;21.17;42.09
19783;BME280;10051;40.294;-3.754;2022-09-03T04:32:49;93785.22;;;20.92;42.10
19783;BME280;10051;40.294;-3.754;2022-09-03T04:35:23;93847.09;;;21.37;42.15
19783;BME280;10051;40.294;-3.754;2022-09-03T04:37:50;93829.25;;;21.21;42.29
19783;BME280;10051;40.294;-3.754;2022-09-03T04:40:17;93845.38;;;21.25;42.24
19783;BME280;10051;40.294;-3.754;2022-09-03T04:42:42;93740.19;;;20.55;42.78
19783;BME280;10051;40.294;-3.754;2022-09-03T04:45:08;93836.09;;;21.19;42.63
19783;BME280;10051;40.294;-3.754;2022-09-03T04:47:34;93832.84;;;21.29;42.17
19783;BME280;10051;40.294;-3.754;2022-09-03T04:50:02;93861.72;;;21.43;42.42
19783;BME280;10051;40.294;-3.754;2022-09-03T04:52:28;93858.59;;;21.37;42.56
19783;BME280;10051;40.294;-3.754;2022-09-03T04:54:56;93811.66;;;20.97;42.74
19783;BME280;10051;40.294;-3.754;2022-09-03T04:57:22;93790.69;;;20.79;42.85
19783;BME280;10051;40.294;-3.754;2022-09-03T04:59:47;93823.78;;;21.14;42.74
19783;BME280;10051;40.294;-3.754;2022-09-03T05:02:13;93808.97;;;20.97;42.88
19783;BME280;10051;40.294;-3.754;2022-09-03T05:04:40;93684.41;;;20.10;43.03
19783;BME280;10051;40.294;-3.754;2022-09-03T05:07:06;93861.41;;;21.25;43.25
19783;BME280;10051;40.294;-3.754;2022-09-03T05:09:31;93795.16;;;20.75;43.18
19783;BME280;10051;40.294;-3.754;2022-09-03T05:11:57;93877.31;;;21.18;43.49
19783;BME280;10051;40.294;-3.754;2022-09-03T05:14:22;93829.84;;;20.91;43.66
19783;BME280;10051;40.294;-3.754;2022-09-03T05:16:48;93867.75;;;21.17;43.73
19783;BME280;10051;40.294;-3.754;2022-09-03T05:19:14;93867.13;;;21.04;44.33
19783;BME280;10051;40.294;-3.754;2022-09-03T05:21:40;93866.91;;;21.13;44.25
19783;BME280;10051;40.294;-3.754;2022-09-03T05:24:07;93868.03;;;21.12;44.52
19783;BME280;10051;40.294;-3.754;2022-09-03T05:26:36;93843.34;;;20.99;44.55
19783;BME280;10051;40.294;-3.754;2022-09-03T05:29:03;93871.13;;;21.14;44.69
19783;BME280;10051;40.294;-3.754;2022-09-03T05:31:33;93854.94;;;21.06;44.79
19783;BME280;10051;40.294;-3.754;2022-09-03T05:34:02;93855.94;;;21.18;44.67
19783;BME280;10051;40.294;-3.754;2022-09-03T05:36:30;93867.66;;;21.33;44.61
19783;BME280;10051;40.294;-3.754;2022-09-03T05:41:22;93836.47;;;20.98;45.08
19783;BME280;10051;40.294;-3.754;2022-09-03T05:43:49;93869.16;;;21.30;45.03
19783;BME280;10051;40.294;-3.754;2022-09-03T05:46:25;93845.22;;;21.18;44.89
19783;BME280;10051;40.294;-3.754;2022-09-03T05:48:59;93828.34;;;21.14;44.92
19783;BME280;10051;40.294;-3.754;2022-09-03T05:51:26;93871.63;;;21.43;44.93
19783;BME280;10051;40.294;-3.754;2022-09-03T05:53:52;93865.47;;;21.38;44.96
19783;BME280;10051;40.294;-3.754;2022-09-03T05:56:21;93874.75;;;21.45;45.02
19783;BME280;10051;40.294;-3.754;2022-09-03T05:58:49;93879.09;;;21.53;44.82
19783;BME280;10051;40.294;-3.754;2022-09-03T06:01:24;93850.16;;;21.35;44.69
19783;BME280;10051;40.294;-3.754;2022-09-03T06:03:55;93829.66;;;21.43;44.53
19783;BME280;10051;40.294;-3.754;2022-09-03T06:06:23;93831.94;;;21.45;44.70
19783;BME280;10051;40.294;-3.754;2022-09-03T06:09:01;93885.28;;;21.77;44.56
19783;BME280;10051;40.294;-3.754;2022-09-03T06:11:28;93876.25;;;21.85;44.32
19783;BME280;10051;40.294;-3.754;2022-09-03T06:13:59;93872.66;;;22.01;44.10
19783;BME280;10051;40.294;-3.754;2022-09-03T06:16:33;93881.81;;;21.99;43.97
19783;BME280;10051;40.294;-3.754;2022-09-03T06:18:59;93820.38;;;21.60;43.89
19783;BME280;10051;40.294;-3.754;2022-09-03T06:21:26;93880.41;;;22.09;43.75
19783;BME280;10051;40.294;-3.754;2022-09-03T06:23:54;93885.38;;;22.07;43.88
19783;BME280;10051;40.294;-3.754;2022-09-03T06:26:21;93873.53;;;22.08;44.07
19783;BME280;10051;40.294;-3.754;2022-09-03T06:28:47;93885.13;;;22.16;43.99
19783;BME280;10051;40.294;-3.754;2022-09-03T06:31:16;93865.13;;;21.83;44.16
19783;BME280;10051;40.294;-3.754;2022-09-03T06:33:43;93841.22;;;21.71;44.16
19783;BME280;10051;40.294;-3.754;2022-09-03T06:36:10;93870.97;;;21.92;43.93
19783;BME280;10051;40.294;-3.754;2022-09-03T06:38:38;93844.84;;;21.82;44.02
19783;BME280;10051;40.294;-3.754;2022-09-03T06:41:06;93867.88;;;21.90;43.92
19783;BME280;10051;40.294;-3.754;2022-09-03T06:43:34;93900.63;;;22.30;43.73
19783;BME280;10051;40.294;-3.754;2022-09-03T06:46:06;93812.72;;;21.82;43.52
19783;BME280;10051;40.294;-3.754;2022-09-03T06:48:33;93877.41;;;22.38;43.52
19783;BME280;10051;40.294;-3.754;2022-09-03T06:51:04;93850.47;;;22.27;43.43
19783;BME280;10051;40.294;-3.754;2022-09-03T06:53:33;93914.06;;;22.57;43.74
19783;BME280;10051;40.294;-3.754;2022-09-03T06:56:03;93858.25;;;22.09;44.33
19783;BME280;10051;40.294;-3.754;2022-09-03T06:58:30;93921.13;;;22.69;44.03
19783;BME280;10051;40.294;-3.754;2022-09-03T07:01:03;93921.31;;;22.83;43.99
19783;BME280;10051;40.294;-3.754;2022-09-03T07:03:30;93907.81;;;22.76;43.86
19783;BME280;10051;40.294;-3.754;2022-09-03T07:06:00;93910.06;;;23.01;43.54
19783;BME280;10051;40.294;-3.754;2022-09-03T07:08:26;93890.25;;;23.09;42.95
19783;BME280;10051;40.294;-3.754;2022-09-03T07:10:51;93840.03;;;22.72;42.93
19783;BME280;10051;40.294;-3.754;2022-09-03T07:13:17;93892.03;;;23.32;42.17
19783;BME280;10051;40.294;-3.754;2022-09-03T07:15:44;93916.03;;;23.52;42.39
19783;BME280;10051;40.294;-3.754;2022-09-03T07:18:10;93809.16;;;22.85;42.35
19783;BME280;10051;40.294;-3.754;2022-09-03T07:20:35;93855.63;;;23.31;41.70
19783;BME280;10051;40.294;-3.754;2022-09-03T07:23:00;93919.72;;;23.77;41.74
19783;BME280;10051;40.294;-3.754;2022-09-03T07:25:26;93801.63;;;22.64;42.04
19783;BME280;10051;40.294;-3.754;2022-09-03T07:27:52;93868.22;;;23.27;41.86
19783;BME280;10051;40.294;-3.754;2022-09-03T07:30:18;93870.88;;;23.23;42.08
19783;BME280;10051;40.294;-3.754;2022-09-03T07:32:45;93926.13;;;23.66;42.29
19783;BME280;10051;40.294;-3.754;2022-09-03T07:35:11;93814.03;;;23.10;41.65
19783;BME280;10051;40.294;-3.754;2022-09-03T07:37:40;93842.06;;;23.51;41.33
19783;BME280;10051;40.294;-3.754;2022-09-03T07:40:08;93911.91;;;23.99;41.30
19783;BME280;10051;40.294;-3.754;2022-09-03T07:42:35;93909.66;;;24.09;41.05
19783;BME280;10051;40.294;-3.754;2022-09-03T07:45:04;93872.34;;;23.96;40.62
19783;BME280;10051;40.294;-3.754;2022-09-03T07:47:34;93872.06;;;24.09;40.34
19783;BME280;10051;40.294;-3.754;2022-09-03T07:50:00;93930.75;;;24.55;40.36
19783;BME280;10051;40.294;-3.754;2022-09-03T07:52:25;93852.50;;;24.04;40.11
19783;BME280;10051;40.294;-3.754;2022-09-03T07:54:51;93900.00;;;24.49;39.73
19783;BME280;10051;40.294;-3.754;2022-09-03T07:57:16;93936.34;;;24.84;39.83
19783;BME280;10051;40.294;-3.754;2022-09-03T07:59:42;93920.44;;;24.64;39.56
19783;BME280;10051;40.294;-3.754;2022-09-03T08:02:07;93882.28;;;24.41;39.82
19783;BME280;10051;40.294;-3.754;2022-09-03T08:04:32;93899.31;;;24.63;39.19
19783;BME280;10051;40.294;-3.754;2022-09-03T08:07:00;93939.84;;;24.95;38.89
19783;BME280;10051;40.294;-3.754;2022-09-03T08:09:25;93882.38;;;24.55;38.80
19783;BME280;10051;40.294;-3.754;2022-09-03T08:11:51;93877.81;;;24.63;38.55
19783;BME280;10051;40.294;-3.754;2022-09-03T08:14:16;93884.44;;;24.73;38.60
19783;BME280;10051;40.294;-3.754;2022-09-03T08:16:45;93943.88;;;25.31;38.14
19783;BME280;10051;40.294;-3.754;2022-09-03T08:19:14;93907.31;;;25.22;38.25
19783;BME280;10051;40.294;-3.754;2022-09-03T08:21:41;93875.00;;;25.12;37.99
19783;BME280;10051;40.294;-3.754;2022-09-03T08:24:06;93945.19;;;25.73;37.56
19783;BME280;10051;40.294;-3.754;2022-09-03T08:26:37;93900.44;;;25.43;37.37
19783;BME280;10051;40.294;-3.754;2022-09-03T08:29:04;93912.06;;;25.62;36.96
19783;BME280;10051;40.294;-3.754;2022-09-03T08:31:31;93952.53;;;25.98;37.00
19783;BME280;10051;40.294;-3.754;2022-09-03T08:33:58;93919.81;;;25.89;36.76
19783;BME280;10051;40.294;-3.754;2022-09-03T08:36:26;93908.25;;;25.84;36.70
19783;BME280;10051;40.294;-3.754;2022-09-03T08:38:55;93941.41;;;26.14;36.45
19783;BME280;10051;40.294;-3.754;2022-09-03T08:41:35;93964.53;;;26.37;36.11
19783;BME280;10051;40.294;-3.754;2022-09-03T08:44:23;93963.78;;;26.47;35.99
19783;BME280;10051;40.294;-3.754;2022-09-03T08:52:02;93951.03;;;26.51;35.21
19783;BME280;10051;40.294;-3.754;2022-09-03T08:54:31;93921.78;;;26.28;35.28
19783;BME280;10051;40.294;-3.754;2022-09-03T08:57:01;93977.59;;;26.75;35.22
19783;BME280;10051;40.294;-3.754;2022-09-03T08:59:29;93972.59;;;26.84;35.48
19783;BME280;10051;40.294;-3.754;2022-09-03T09:05:16;93923.34;;;26.25;35.38
19783;BME280;10051;40.294;-3.754;2022-09-03T09:10:40;93973.00;;;26.57;35.19
19783;BME280;10051;40.294;-3.754;2022-09-03T09:13:43;93971.81;;;26.69;35.18
19783;BME280;10051;40.294;-3.754;2022-09-03T09:24:32;93968.38;;;26.90;34.77
19783;BME280;10051;40.294;-3.754;2022-09-03T09:27:02;93978.34;;;27.11;34.41
19783;BME280;10051;40.294;-3.754;2022-09-03T09:29:34;93976.75;;;27.21;34.42
19783;BME280;10051;40.294;-3.754;2022-09-03T09:32:00;93945.63;;;26.91;34.52
19783;BME280;10051;40.294;-3.754;2022-09-03T09:34:26;93961.03;;;27.01;34.54
19783;BME280;10051;40.294;-3.754;2022-09-03T09:36:53;93991.00;;;27.33;34.19
19783;BME280;10051;40.294;-3.754;2022-09-03T09:39:21;93924.44;;;26.71;34.46
19783;BME280;10051;40.294;-3.754;2022-09-03T09:42:00;93972.56;;;27.09;34.42
19783;BME280;10051;40.294;-3.754;2022-09-03T09:44:32;93993.69;;;27.36;33.56
19783;BME280;10051;40.294;-3.754;2022-09-03T09:47:11;93959.09;;;27.06;34.06
19783;BME280;10051;40.294;-3.754;2022-09-03T09:49:52;93961.78;;;26.77;34.16
19783;BME280;10051;40.294;-3.754;2022-09-03T09:52:19;93994.94;;;26.99;33.92
19783;BME280;10051;40.294;-3.754;2022-09-03T09:54:50;93984.56;;;26.68;34.10
19783;BME280;10051;40.294;-3.754;2022-09-03T09:57:20;93932.56;;;26.35;34.78
19783;BME280;10051;40.294;-3.754;2022-09-03T09:59:46;93940.63;;;26.61;34.51
19783;BME280;10051;40.294;-3.754;2022-09-03T10:02:22;93991.47;;;26.98;34.13
19783;BME280;10051;40.294;-3.754;2022-09-03T10:05:00;93986.00;;;27.27;33.98
19783;BME280;10051;40.294;-3.754;2022-09-03T10:07:36;93922.94;;;26.81;33.50
19783;BME280;10051;40.294;-3.754;2022-09-03T10:10:17;93982.09;;;27.39;33.94
19783;BME280;10051;40.294;-3.754;2022-09-03T10:12:49;93959.72;;;27.42;33.24
19783;BME280;10051;40.294;-3.754;2022-09-03T10:18:13;93955.78;;;27.69;32.88
19783;BME280;10051;40.294;-3.754;2022-09-03T10:20:45;93984.22;;;27.88;32.16
19783;BME280;10051;40.294;-3.754;2022-09-03T10:23:26;93978.41;;;27.97;31.78
19783;BME280;10051;40.294;-3.754;2022-09-03T10:26:13;93956.25;;;27.56;31.76
19783;BME280;10051;40.294;-3.754;2022-09-03T10:28:41;93950.47;;;27.47;31.90
19783;BME280;10051;40.294;-3.754;2022-09-03T10:45:39;93955.56;;;28.12;31.32
19783;BME280;10051;40.294;-3.754;2022-09-03T10:48:30;93967.72;;;28.39;30.88
19783;BME280;10051;40.294;-3.754;2022-09-03T10:51:14;93963.16;;;28.32;30.71
19783;BME280;10051;40.294;-3.754;2022-09-03T11:05:05;93924.38;;;27.97;31.12
19783;BME280;10051;40.294;-3.754;2022-09-03T11:07:39;93932.41;;;28.04;30.87
19783;BME280;10051;40.294;-3.754;2022-09-03T11:10:27;93958.25;;;28.05;30.54
19783;BME280;10051;40.294;-3.754;2022-09-03T11:15:48;93945.13;;;28.11;30.34
19783;BME280;10051;40.294;-3.754;2022-09-03T11:18:28;93948.94;;;28.20;30.39
19783;BME280;10051;40.294;-3.754;2022-09-03T11:21:00;93949.16;;;28.41;30.25
19783;BME280;10051;40.294;-3.754;2022-09-03T11:23:32;93926.00;;;28.43;29.91
19783;BME280;10051;40.294;-3.754;2022-09-03T11:26:04;93869.03;;;28.19;29.65
19783;BME280;10051;40.294;-3.754;2022-09-03T11:33:52;93937.69;;;28.26;29.33
19783;BME280;10051;40.294;-3.754;2022-09-03T11:36:28;93937.00;;;28.18;29.82
19783;BME280;10051;40.294;-3.754;2022-09-03T11:38:54;93914.69;;;28.03;29.29
19783;BME280;10051;40.294;-3.754;2022-09-03T11:41:33;93939.72;;;28.07;29.22
19783;BME280;10051;40.294;-3.754;2022-09-03T11:44:17;93939.34;;;28.05;30.41
19783;BME280;10051;40.294;-3.754;2022-09-03T11:46:57;93900.13;;;27.89;30.68
19783;BME280;10051;40.294;-3.754;2022-09-03T11:49:30;93933.88;;;28.19;29.99
19783;BME280;10051;40.294;-3.754;2022-09-03T11:51:59;93937.00;;;28.14;30.30
19783;BME280;10051;40.294;-3.754;2022-09-03T11:54:26;93889.31;;;27.89;29.83
19783;BME280;10051;40.294;-3.754;2022-09-03T11:57:12;93940.72;;;28.35;29.73
19783;BME280;10051;40.294;-3.754;2022-09-03T11:59:42;93927.44;;;28.52;29.96
19783;BME280;10051;40.294;-3.754;2022-09-03T12:02:20;93937.41;;;28.62;29.54
19783;BME280;10051;40.294;-3.754;2022-09-03T12:10:34;93932.63;;;28.81;28.93
19783;BME280;10051;40.294;-3.754;2022-09-03T12:18:34;93921.06;;;28.76;27.91
19783;BME280;10051;40.294;-3.754;2022-09-03T12:21:05;93925.97;;;28.89;27.79
19783;BME280;10051;40.294;-3.754;2022-09-03T12:23:41;93917.78;;;28.96;28.12
19783;BME280;10051;40.294;-3.754;2022-09-03T12:26:11;93869.63;;;28.80;27.93
19783;BME280;10051;40.294;-3.754;2022-09-03T12:28:51;93898.38;;;29.01;28.18
19783;BME280;10051;40.294;-3.754;2022-09-03T12:33:55;93919.66;;;29.37;27.96
19783;BME280;10051;40.294;-3.754;2022-09-03T12:36:23;93898.94;;;28.89;28.21
19783;BME280;10051;40.294;-3.754;2022-09-03T12:38:49;93902.91;;;29.12;27.43
19783;BME280;10051;40.294;-3.754;2022-09-03T12:41:20;93853.38;;;28.84;26.96
19783;BME280;10051;40.294;-3.754;2022-09-03T12:43:57;93885.22;;;29.03;27.61
19783;BME280;10051;40.294;-3.754;2022-09-03T12:46:31;93917.25;;;29.08;28.37
19783;BME280;10051;40.294;-3.754;2022-09-03T12:48:59;93903.25;;;28.79;28.94
19783;BME280;10051;40.294;-3.754;2022-09-03T12:51:35;93872.66;;;28.47;29.21
19783;BME280;10051;40.294;-3.754;2022-09-03T12:54:02;93902.25;;;29.04;28.33
19783;BME280;10051;40.294;-3.754;2022-09-03T12:56:32;93881.25;;;29.12;27.56
19783;BME280;10051;40.294;-3.754;2022-09-03T12:59:03;93832.78;;;28.93;27.09
19783;BME280;10051;40.294;-3.754;2022-09-03T13:01:34;93896.28;;;29.51;26.68
19783;BME280;10051;40.294;-3.754;2022-09-03T13:04:09;93878.31;;;29.64;26.40
19783;BME280;10051;40.294;-3.754;2022-09-03T13:07:04;93889.28;;;29.81;25.94
19783;BME280;10051;40.294;-3.754;2022-09-03T13:09:35;93848.50;;;29.64;26.37
19783;BME280;10051;40.294;-3.754;2022-09-03T13:12:02;93782.75;;;29.05;25.88
19783;BME280;10051;40.294;-3.754;2022-09-03T13:14:46;93826.16;;;29.29;25.94
19783;BME280;10051;40.294;-3.754;2022-09-03T13:20:32;93854.19;;;29.74;25.83
19783;BME280;10051;40.294;-3.754;2022-09-03T13:23:28;93887.47;;;30.02;26.08
19783;BME280;10051;40.294;-3.754;2022-09-03T13:26:12;93861.97;;;29.95;25.55
19783;BME280;10051;40.294;-3.754;2022-09-03T13:31:33;93859.59;;;30.25;25.80
19783;BME280;10051;40.294;-3.754;2022-09-03T13:34:09;93859.41;;;30.36;24.53
19783;BME280;10051;40.294;-3.754;2022-09-03T13:39:41;93800.16;;;30.14;24.35
19783;BME280;10051;40.294;-3.754;2022-09-03T13:45:00;93877.31;;;30.53;24.32
19783;BME280;10051;40.294;-3.754;2022-09-03T13:50:16;93880.63;;;30.41;25.05
19783;BME280;10051;40.294;-3.754;2022-09-03T13:52:58;93836.03;;;30.22;25.01
19783;BME280;10051;40.294;-3.754;2022-09-03T13:56:05;93877.97;;;30.61;24.61
19783;BME280;10051;40.294;-3.754;2022-09-03T13:58:43;93859.59;;;30.25;23.51
19783;BME280;10051;40.294;-3.754;2022-09-03T14:01:20;93868.75;;;30.11;23.50
19783;BME280;10051;40.294;-3.754;2022-09-03T14:04:00;93863.34;;;30.07;23.75
19783;BME280;10051;40.294;-3.754;2022-09-03T14:06:39;93865.09;;;30.21;23.39
19783;BME280;10051;40.294;-3.754;2022-09-03T14:09:38;93862.25;;;30.29;23.62
19783;BME280;10051;40.294;-3.754;2022-09-03T14:12:36;93858.59;;;30.39;24.03
19783;BME280;10051;40.294;-3.754;2022-09-03T14:20:27;93861.44;;;30.52;24.02
19783;BME280;10051;40.294;-3.754;2022-09-03T14:23:05;93863.53;;;30.44;24.39
19783;BME280;10051;40.294;-3.754;2022-09-03T14:25:32;93840.06;;;30.34;23.23
19783;BME280;10051;40.294;-3.754;2022-09-03T14:28:34;93802.16;;;30.10;22.37
19783;BME280;10051;40.294;-3.754;2022-09-03T14:34:00;93857.63;;;30.25;23.11
19783;BME280;10051;40.294;-3.754;2022-09-03T14:39:19;93850.00;;;30.20;23.33
19783;BME280;10051;40.294;-3.754;2022-09-03T14:47:59;93856.91;;;30.01;23.35
19783;BME280;10051;40.294;-3.754;2022-09-03T14:53:18;93850.94;;;30.10;23.16
19783;BME280;10051;40.294;-3.754;2022-09-03T14:58:39;93824.38;;;30.01;23.27
19783;BME280;10051;40.294;-3.754;2022-09-03T15:01:13;93842.38;;;30.11;22.51
19783;BME280;10051;40.294;-3.754;2022-09-03T15:06:50;93800.44;;;29.96;22.12
19783;BME280;10051;40.294;-3.754;2022-09-03T15:12:17;93829.66;;;30.08;21.59
19783;BME280;10051;40.294;-3.754;2022-09-03T15:18:13;93837.03;;;30.08;21.64
19783;BME280;10051;40.294;-3.754;2022-09-03T15:23:23;93827.81;;;29.78;21.50
19783;BME280;10051;40.294;-3.754;2022-09-03T15:28:26;93819.44;;;29.68;19.36
19783;BME280;10051;40.294;-3.754;2022-09-03T15:36:37;93828.38;;;29.89;21.37
19783;BME280;10051;40.294;-3.754;2022-09-03T15:39:08;93816.38;;;29.90;21.76
19783;BME280;10051;40.294;-3.754;2022-09-03T15:44:14;93776.94;;;29.62;21.62
19783;BME280;10051;40.294;-3.754;2022-09-03T15:46:52;93807.06;;;29.67;21.10
19783;BME280;10051;40.294;-3.754;2022-09-03T15:52:20;93812.97;;;29.59;20.64
19783;BME280;10051;40.294;-3.754;2022-09-03T15:55:11;93808.69;;;29.61;20.16
19783;BME280;10051;40.294;-3.754;2022-09-03T15:57:40;93811.81;;;29.60;20.12
19783;BME280;10051;40.294;-3.754;2022-09-03T16:00:19;93787.38;;;29.36;20.08
19783;BME280;10051;40.294;-3.754;2022-09-03T16:03:07;93798.19;;;29.36;18.86
19783;BME280;10051;40.294;-3.754;2022-09-03T16:05:43;93798.94;;;29.40;20.47
19783;BME280;10051;40.294;-3.754;2022-09-03T16:13:49;93806.03;;;29.30;19.53
19783;BME280;10051;40.294;-3.754;2022-09-03T16:19:09;93789.19;;;29.15;19.90
19783;BME280;10051;40.294;-3.754;2022-09-03T16:27:22;93811.56;;;28.92;20.83
19783;BME280;10051;40.294;-3.754;2022-09-03T16:30:20;93808.47;;;28.90;21.49
19783;BME280;10051;40.294;-3.754;2022-09-03T16:40:50;93795.13;;;28.72;20.00
19783;BME280;10051;40.294;-3.754;2022-09-03T16:51:52;93785.69;;;28.53;20.29
19783;BME280;10051;40.294;-3.754;2022-09-03T17:02:05;93799.94;;;28.57;20.36
19783;BME280;10051;40.294;-3.754;2022-09-03T17:04:50;93805.69;;;28.59;22.13
19783;BME280;10051;40.294;-3.754;2022-09-03T17:07:46;93715.56;;;28.00;22.40